createdAt,value
2022-09-23T00:01:24.833Z,8.21
2022-09-23T00:04:07.022Z,8.21
2022-09-23T00:06:34.693Z,8.19
2022-09-23T00:09:02.292Z,8.18
2022-09-23T00:11:29.915Z,8.16
2022-09-23T00:13:59.717Z,8.15
2022-09-23T00:16:34.266Z,8.14
2022-09-23T00:19:03.761Z,8.09
2022-09-23T00:21:31.432Z,8.04
2022-09-23T00:24:03.110Z,7.99
2022-09-23T00:26:30.744Z,7.93
2022-09-23T00:29:01.464Z,7.90
2022-09-23T00:31:29.196Z,7.87
2022-09-23T00:33:59.216Z,7.86
2022-09-23T00:36:28.900Z,7.84
2022-09-23T00:38:56.913Z,7.82
2022-09-23T00:41:25.186Z,7.83
2022-09-23T00:44:00.781Z,7.85
2022-09-23T00:46:44.478Z,7.86
2022-09-23T00:49:29.701Z,7.89
2022-09-23T00:52:06.754Z,7.92
2022-09-23T00:54:35.605Z,7.95
2022-09-23T00:57:05.261Z,7.96
2022-09-23T00:59:33.533Z,7.97
2022-09-23T01:02:03.067Z,7.96
2022-09-23T01:04:31.628Z,7.97
2022-09-23T01:06:59.261Z,7.98
2022-09-23T01:09:26.881Z,7.99
2022-09-23T01:12:03.014Z,8.03
2022-09-23T01:15:08.408Z,8.06
2022-09-23T01:17:55.002Z,8.08
2022-09-23T01:20:42.602Z,8.05
2022-09-23T01:23:44.853Z,8.02
2022-09-23T01:26:34.272Z,7.99
2022-09-23T01:29:33.753Z,7.96
2022-09-23T01:38:32.723Z,7.93
2022-09-23T01:44:36.930Z,7.91
2022-09-23T01:47:11.605Z,7.89
2022-09-23T01:49:48.494Z,7.90
2022-09-23T01:52:24.486Z,7.92
2022-09-23T01:57:41.339Z,7.99
2022-09-23T02:00:13.799Z,8.03
2022-09-23T02:02:49.568Z,8.03
2022-09-23T02:05:33.374Z,7.95
2022-09-23T02:08:10.955Z,7.92
2022-09-23T02:10:48.743Z,7.91
2022-09-23T02:13:29.843Z,7.91
2022-09-23T02:16:02.180Z,7.87
2022-09-23T02:18:52.088Z,7.87
2022-09-23T02:21:25.018Z,7.89
2022-09-23T02:24:00.483Z,7.91
2022-09-23T02:26:33.821Z,7.90
2022-09-23T02:29:08.085Z,7.90
2022-09-23T02:31:58.263Z,7.88
2022-09-23T02:35:06.014Z,7.86
2022-09-23T02:38:31.369Z,7.86
2022-09-23T02:41:05.580Z,7.87
2022-09-23T02:43:51.238Z,7.85
2022-09-23T02:46:20.265Z,7.81
2022-09-23T02:48:55.598Z,7.78
2022-09-23T02:51:28.733Z,7.74
2022-09-23T02:53:57.752Z,7.71
2022-09-23T02:56:25.480Z,7.70
2022-09-23T02:58:55.002Z,7.70
2022-09-23T03:01:56.439Z,7.72
2022-09-23T03:04:43.213Z,7.74
2022-09-23T03:07:14.396Z,7.72
2022-09-23T03:09:54.364Z,7.68
2022-09-23T03:12:41.098Z,7.62
2022-09-23T03:18:20.399Z,7.58
2022-09-23T03:21:09.420Z,7.59
2022-09-23T03:23:40.496Z,7.60
2022-09-23T03:26:16.404Z,7.61
2022-09-23T03:28:45.366Z,7.58
2022-09-23T03:31:15.181Z,7.53
2022-09-23T03:33:48.474Z,7.45
2022-09-23T03:36:38.501Z,7.38
2022-09-23T03:39:10.876Z,7.34
2022-09-23T03:41:57.016Z,7.27
2022-09-23T03:44:24.647Z,7.20
2022-09-23T03:46:52.146Z,7.18
2022-09-23T03:49:35.424Z,7.17
2022-09-23T03:52:07.726Z,7.16
2022-09-23T03:54:36.711Z,7.14
2022-09-23T03:57:04.477Z,7.14
2022-09-23T03:59:32.657Z,7.14
2022-09-23T04:02:00.692Z,7.14
2022-09-23T04:04:29.721Z,7.10
2022-09-23T04:06:57.462Z,7.02
2022-09-23T04:09:25.333Z,6.95
2022-09-23T04:11:53.509Z,6.90
2022-09-23T04:14:22.348Z,6.86
2022-09-23T04:16:50.588Z,6.84
2022-09-23T04:19:18.759Z,6.84
2022-09-23T04:21:46.650Z,6.84
2022-09-23T04:24:14.938Z,6.86
2022-09-23T04:26:43.083Z,6.88
2022-09-23T04:29:11.930Z,6.87
2022-09-23T04:31:39.787Z,6.85
2022-09-23T04:34:09.212Z,6.82
2022-09-23T04:36:36.852Z,6.80
2022-09-23T04:39:05.674Z,6.81
2022-09-23T04:41:33.391Z,6.82
2022-09-23T04:44:01.246Z,6.84
2022-09-23T04:46:28.948Z,6.84
2022-09-23T04:48:57.048Z,6.83
2022-09-23T04:51:26.186Z,6.79
2022-09-23T04:53:59.028Z,6.78
2022-09-23T04:56:29.543Z,6.76
2022-09-23T04:58:58.273Z,6.75
2022-09-23T05:01:28.297Z,6.76
2022-09-23T05:03:58.501Z,6.79
2022-09-23T05:06:26.106Z,6.83
2022-09-23T05:08:55.505Z,6.85
2022-09-23T05:11:24.492Z,6.89
2022-09-23T05:13:54.042Z,6.91
2022-09-23T05:16:23.717Z,6.93
2022-09-23T05:18:52.272Z,6.96
2022-09-23T05:21:23.885Z,6.98
2022-09-23T05:23:55.823Z,6.99
2022-09-23T05:26:25.899Z,7.02
2022-09-23T05:28:54.661Z,7.07
2022-09-23T05:31:30.820Z,7.13
2022-09-23T05:34:03.703Z,7.19
2022-09-23T05:36:37.976Z,7.25
2022-09-23T05:39:08.236Z,7.22
2022-09-23T05:41:36.525Z,7.24
2022-09-23T05:44:07.539Z,7.23
2022-09-23T05:46:38.520Z,7.23
2022-09-23T05:49:07.882Z,7.26
2022-09-23T05:51:45.960Z,7.33
2022-09-23T05:54:23.588Z,7.40
2022-09-23T05:56:51.368Z,7.43
2022-09-23T05:59:21.801Z,7.45
2022-09-23T06:01:56.302Z,7.47
2022-09-23T06:04:26.497Z,7.43
2022-09-23T06:06:54.522Z,7.37
2022-09-23T06:09:25.111Z,7.33
2022-09-23T06:11:52.716Z,7.35
2022-09-23T06:14:20.330Z,7.40
2022-09-23T06:16:48.045Z,7.49
2022-09-23T06:19:15.881Z,7.59
2022-09-23T06:21:44.045Z,7.67
2022-09-23T06:24:16.016Z,7.76
2022-09-23T06:26:47.837Z,7.86
2022-09-23T06:29:18.407Z,7.93
2022-09-23T06:31:46.170Z,8.01
2022-09-23T06:34:15.991Z,8.07
2022-09-23T06:36:48.538Z,8.10
2022-09-23T06:39:49.646Z,8.14
2022-09-23T06:42:20.003Z,8.18
2022-09-23T06:45:10.879Z,8.20
2022-09-23T06:47:42.168Z,8.23
2022-09-23T06:50:16.467Z,8.25
2022-09-23T06:52:51.549Z,8.26
2022-09-23T06:55:19.315Z,8.31
2022-09-23T06:57:47.292Z,8.36
2022-09-23T07:00:32.901Z,8.42
2022-09-23T07:03:30.327Z,8.49
2022-09-23T07:07:18.494Z,8.58
2022-09-23T07:12:43.581Z,8.78
2022-09-23T07:15:12.155Z,8.84
2022-09-23T07:17:42.848Z,8.87
2022-09-23T07:20:11.484Z,8.96
2022-09-23T07:22:39.493Z,9.06
2022-09-23T07:25:07.625Z,9.19
2022-09-23T07:27:35.344Z,9.31
2022-09-23T07:30:03.479Z,9.42
2022-09-23T07:32:42.491Z,9.51
2022-09-23T07:35:14.986Z,9.59
2022-09-23T07:37:42.966Z,9.69
2022-09-23T07:40:10.758Z,9.80
2022-09-23T07:42:40.748Z,9.90
2022-09-23T07:45:09.494Z,9.99
2022-09-23T07:47:39.359Z,10.08
2022-09-23T07:50:11.558Z,10.16
2022-09-23T07:52:39.524Z,10.28
2022-09-23T07:55:07.613Z,10.43
2022-09-23T07:57:35.407Z,10.63
2022-09-23T08:00:04.329Z,10.86
2022-09-23T08:02:32.222Z,11.10
2022-09-23T08:05:00.675Z,11.38
2022-09-23T08:07:29.143Z,11.66
2022-09-23T08:09:57.028Z,11.92
2022-09-23T08:12:24.857Z,12.17
2022-09-23T08:14:52.646Z,12.40
2022-09-23T08:17:20.408Z,12.64
2022-09-23T08:19:48.160Z,12.85
2022-09-23T08:22:16.469Z,13.06
2022-09-23T08:24:44.257Z,13.22
2022-09-23T08:27:12.778Z,13.40
2022-09-23T08:29:41.634Z,13.60
2022-09-23T08:32:09.781Z,13.84
2022-09-23T08:34:37.934Z,14.10
2022-09-23T08:37:11.011Z,14.33
2022-09-23T08:39:40.007Z,14.56
2022-09-23T08:42:37.283Z,14.76
2022-09-23T08:48:58.404Z,15.32
2022-09-23T08:51:39.171Z,15.59
2022-09-23T08:57:12.297Z,16.13
2022-09-23T09:00:15.524Z,16.39
2022-09-23T09:02:43.480Z,16.64
2022-09-23T09:05:26.488Z,16.91
2022-09-23T09:08:23.558Z,17.23
2022-09-23T09:10:55.183Z,17.56
2022-09-23T09:13:45.105Z,17.79
2022-09-23T09:19:43.631Z,17.76
2022-09-23T09:22:42.134Z,17.73
2022-09-23T09:25:42.586Z,17.89
2022-09-23T09:28:33.171Z,18.06
2022-09-23T09:34:01.022Z,18.81
2022-09-23T09:37:07.696Z,19.18
2022-09-23T09:39:37.359Z,19.52
2022-09-23T09:42:16.730Z,19.80
2022-09-23T09:47:51.817Z,20.26
2022-09-23T09:50:38.792Z,20.07
2022-09-23T09:53:25.638Z,20.02
2022-09-23T09:56:12.986Z,20.40
2022-09-23T09:58:44.081Z,20.87
2022-09-23T10:01:20.940Z,21.30
2022-09-23T10:03:59.886Z,21.63
2022-09-23T10:06:32.596Z,21.51
2022-09-23T10:09:22.133Z,21.33
2022-09-23T10:14:47.109Z,21.98
2022-09-23T10:17:24.529Z,22.33
2022-09-23T10:20:01.024Z,22.35
2022-09-23T10:22:35.380Z,22.46
2022-09-23T10:29:24.421Z,23.14
2022-09-23T10:35:26.716Z,23.03
2022-09-23T10:38:12.281Z,22.67
2022-09-23T10:41:01.620Z,22.59
2022-09-23T10:44:11.468Z,22.40
2022-09-23T10:49:43.201Z,22.48
2022-09-23T10:52:46.449Z,22.70
2022-09-23T10:55:45.757Z,23.07
2022-09-23T11:01:52.885Z,23.15
2022-09-23T11:07:33.826Z,23.20
2022-09-23T11:10:45.112Z,23.21
2022-09-23T11:13:32.428Z,23.44
2022-09-23T11:16:19.198Z,23.29
2022-09-23T11:19:24.075Z,22.96
2022-09-23T11:22:36.726Z,22.40
2022-09-23T11:25:07.659Z,21.78
2022-09-23T11:27:56.707Z,21.31
2022-09-23T11:30:44.663Z,20.84
2022-09-23T11:33:54.612Z,20.45
2022-09-23T11:46:27.559Z,18.87
2022-09-23T11:59:04.712Z,19.25
2022-09-23T12:01:47.851Z,20.02
2022-09-23T12:05:16.640Z,20.60
2022-09-23T12:08:15.494Z,21.30
2022-09-23T12:14:18.608Z,21.11
2022-09-23T12:20:00.823Z,20.21
2022-09-23T12:23:06.606Z,19.72
2022-09-23T12:28:56.763Z,18.64
2022-09-23T12:34:34.660Z,17.90
2022-09-23T12:39:54.115Z,17.50
2022-09-23T12:42:26.663Z,17.44
2022-09-23T12:45:35.187Z,17.38
2022-09-23T12:49:03.266Z,17.29
2022-09-23T12:51:35.017Z,17.14
2022-09-23T12:54:05.810Z,17.06
2022-09-23T12:56:36.563Z,16.97
2022-09-23T12:59:28.076Z,16.89
2022-09-23T13:01:56.878Z,16.90
2022-09-23T13:04:57.522Z,17.00
2022-09-23T13:07:34.228Z,17.22
2022-09-23T13:10:17.054Z,17.42
2022-09-23T13:12:46.660Z,18.27
2022-09-23T13:15:24.591Z,19.40
2022-09-23T13:17:52.448Z,20.20
2022-09-23T13:20:20.608Z,20.56
2022-09-23T13:22:54.138Z,20.67
2022-09-23T13:25:33.395Z,20.61
2022-09-23T13:28:03.817Z,20.57
2022-09-23T13:30:31.495Z,20.50
2022-09-23T13:33:10.386Z,20.37
2022-09-23T13:35:46.143Z,20.29
2022-09-23T13:38:32.393Z,20.25
2022-09-23T13:41:05.856Z,20.23
2022-09-23T13:43:45.213Z,20.31
2022-09-23T13:46:18.810Z,20.37
2022-09-23T13:48:50.688Z,20.40
2022-09-23T13:51:33.716Z,20.55
2022-09-23T13:54:05.898Z,20.88
2022-09-23T13:56:38.692Z,21.12
2022-09-23T13:59:25.845Z,21.29
2022-09-23T14:02:16.266Z,21.64
2022-09-23T14:04:44.854Z,22.50
2022-09-23T14:07:15.602Z,23.60
2022-09-23T14:09:47.610Z,24.65
2022-09-23T14:12:22.056Z,25.38
2022-09-23T14:14:51.987Z,25.49
2022-09-23T14:17:25.476Z,25.59
2022-09-23T14:19:53.172Z,25.39
2022-09-23T14:22:29.136Z,24.86
2022-09-23T14:24:58.492Z,24.20
2022-09-23T14:27:33.853Z,23.59
2022-09-23T14:30:03.729Z,23.05
2022-09-23T14:32:35.222Z,22.77
2022-09-23T14:35:03.822Z,22.47
2022-09-23T14:37:52.085Z,22.21
2022-09-23T14:40:24.930Z,21.76
2022-09-23T14:43:26.833Z,21.38
2022-09-23T14:45:57.671Z,20.98
2022-09-23T14:48:37.359Z,21.64
2022-09-23T14:51:12.017Z,22.08
2022-09-23T14:53:53.188Z,21.78
2022-09-23T14:56:23.193Z,21.33
2022-09-23T14:58:55.427Z,20.82
2022-09-23T15:01:34.308Z,20.25
2022-09-23T15:04:28.165Z,19.71
2022-09-23T15:07:17.783Z,19.23
2022-09-23T15:09:46.504Z,18.84
2022-09-23T15:12:26.551Z,18.56
2022-09-23T15:14:58.166Z,18.31
2022-09-23T15:17:43.234Z,18.39
2022-09-23T15:20:16.841Z,19.63
2022-09-23T15:22:46.276Z,21.26
2022-09-23T15:25:35.812Z,22.80
2022-09-23T15:28:18.270Z,24.34
2022-09-23T15:30:45.932Z,25.73
2022-09-23T15:33:17.764Z,26.70
2022-09-23T15:35:48.955Z,27.64
2022-09-23T15:38:17.795Z,28.39
2022-09-23T15:40:45.965Z,28.09
2022-09-23T15:43:21.135Z,27.26
2022-09-23T15:46:07.829Z,26.13
2022-09-23T15:48:39.488Z,25.01
2022-09-23T15:51:09.955Z,24.29
2022-09-23T15:53:39.428Z,24.13
2022-09-23T15:56:08.153Z,24.12
2022-09-23T15:58:35.960Z,23.96
2022-09-23T16:01:03.755Z,23.57
2022-09-23T16:03:31.696Z,22.87
2022-09-23T16:06:03.208Z,22.18
2022-09-23T16:08:32.788Z,21.45
2022-09-23T16:11:02.985Z,20.79
2022-09-23T16:13:33.337Z,20.19
2022-09-23T16:16:02.105Z,19.63
2022-09-23T16:18:30.306Z,19.09
2022-09-23T16:20:59.452Z,18.61
2022-09-23T16:23:37.482Z,18.13
2022-09-23T16:26:27.121Z,17.65
2022-09-23T16:28:56.869Z,17.14
2022-09-23T16:31:31.623Z,16.71
2022-09-23T16:34:02.513Z,16.32
2022-09-23T16:36:33.207Z,15.97
2022-09-23T16:39:06.783Z,15.62
2022-09-23T16:41:35.037Z,15.29
2022-09-23T16:44:04.814Z,14.97
2022-09-23T16:46:33.719Z,14.65
2022-09-23T16:49:01.604Z,14.37
2022-09-23T16:51:41.177Z,14.09
2022-09-23T16:54:13.187Z,13.81
2022-09-23T16:56:45.142Z,13.56
2022-09-23T16:59:14.074Z,13.32
2022-09-23T17:01:59.997Z,13.11
2022-09-23T17:04:28.451Z,12.88
2022-09-23T17:06:56.640Z,12.69
2022-09-23T17:09:28.974Z,12.52
2022-09-23T17:12:16.663Z,12.37
2022-09-23T17:14:44.392Z,12.23
2022-09-23T17:17:12.111Z,12.09
2022-09-23T17:19:41.471Z,11.96
2022-09-23T17:22:09.967Z,11.84
2022-09-23T17:24:37.911Z,11.76
2022-09-23T17:27:05.609Z,11.68
2022-09-23T17:29:33.338Z,11.61
2022-09-23T17:32:01.411Z,11.55
2022-09-23T17:34:29.271Z,11.45
2022-09-23T17:36:57.026Z,11.38
2022-09-23T17:39:24.905Z,11.31
2022-09-23T17:41:58.284Z,11.22
2022-09-23T17:44:27.066Z,11.12
2022-09-23T17:46:54.753Z,11.02
2022-09-23T17:49:24.373Z,10.92
2022-09-23T17:51:52.135Z,10.83
2022-09-23T17:54:20.047Z,10.76
2022-09-23T17:56:47.762Z,10.71
2022-09-23T17:59:15.474Z,10.66
2022-09-23T18:01:44.830Z,10.63
2022-09-23T18:04:12.966Z,10.59
2022-09-23T18:06:40.679Z,10.57
2022-09-23T18:09:08.776Z,10.52
2022-09-23T18:11:42.569Z,10.45
2022-09-23T18:14:22.324Z,10.38
2022-09-23T18:16:53.682Z,10.32
2022-09-23T18:19:23.463Z,10.26
2022-09-23T18:21:55.944Z,10.19
2022-09-23T18:24:32.483Z,10.13
2022-09-23T18:27:02.175Z,10.07
2022-09-23T18:29:30.449Z,10.04
2022-09-23T18:31:59.370Z,9.98
2022-09-23T18:34:28.530Z,9.92
2022-09-23T18:36:56.316Z,9.88
2022-09-23T18:39:26.578Z,9.84
2022-09-23T18:41:54.817Z,9.82
2022-09-23T18:44:23.450Z,9.78
2022-09-23T18:46:51.344Z,9.71
2022-09-23T18:49:35.043Z,9.65
2022-09-23T18:52:02.799Z,9.58
2022-09-23T18:54:31.443Z,9.54
2022-09-23T18:56:59.323Z,9.51
2022-09-23T18:59:29.800Z,9.50
2022-09-23T19:01:59.105Z,9.49
2022-09-23T19:04:29.162Z,9.52
2022-09-23T19:06:57.929Z,9.53
2022-09-23T19:09:26.097Z,9.56
2022-09-23T19:11:53.996Z,9.56
2022-09-23T19:14:22.242Z,9.56
2022-09-23T19:16:50.907Z,9.58
2022-09-23T19:19:18.682Z,9.60
2022-09-23T19:21:46.413Z,9.62
2022-09-23T19:24:19.752Z,9.62
2022-09-23T19:26:48.466Z,9.61
2022-09-23T19:29:21.912Z,9.58
2022-09-23T19:31:50.969Z,9.56
2022-09-23T19:34:36.012Z,9.50
2022-09-23T19:37:05.262Z,9.42
2022-09-23T19:39:40.376Z,9.38
2022-09-23T19:42:08.136Z,9.36
2022-09-23T19:44:37.819Z,9.37
2022-09-23T19:47:06.052Z,9.42
2022-09-23T19:49:33.914Z,9.47
2022-09-23T19:52:01.921Z,9.54
2022-09-23T19:54:29.828Z,9.59
2022-09-23T19:56:57.557Z,9.64
2022-09-23T19:59:26.605Z,9.69
2022-09-23T20:02:03.096Z,9.72
2022-09-23T20:04:31.721Z,9.74
2022-09-23T20:06:59.638Z,9.77
2022-09-23T20:09:29.011Z,9.80
2022-09-23T20:12:01.248Z,9.83
2022-09-23T20:14:34.301Z,9.84
2022-09-23T20:17:03.001Z,9.84
2022-09-23T20:19:30.962Z,9.84
2022-09-23T20:22:14.642Z,9.82
2022-09-23T20:24:42.450Z,9.79
2022-09-23T20:27:10.849Z,9.75
2022-09-23T20:29:38.687Z,9.67
2022-09-23T20:32:06.500Z,9.59
2022-09-23T20:34:34.430Z,9.53
2022-09-23T20:37:02.229Z,9.47
2022-09-23T20:39:33.565Z,9.43
2022-09-23T20:42:03.717Z,9.38
2022-09-23T20:44:32.222Z,9.33
2022-09-23T20:47:00.512Z,9.28
2022-09-23T20:49:32.955Z,9.23
2022-09-23T20:52:04.482Z,9.19
2022-09-23T20:54:32.230Z,9.12
2022-09-23T20:57:02.245Z,9.03
2022-09-23T20:59:30.128Z,8.95
2022-09-23T21:01:58.766Z,8.87
2022-09-23T21:04:28.856Z,8.82
2022-09-23T21:06:58.259Z,8.81
2022-09-23T21:09:27.317Z,8.79
2022-09-23T21:11:57.206Z,8.77
2022-09-23T21:14:25.327Z,8.75
2022-09-23T21:16:55.004Z,8.76
2022-09-23T21:19:24.347Z,8.76
2022-09-23T21:21:52.013Z,8.76
2022-09-23T21:27:08.710Z,8.78
2022-09-23T21:29:36.483Z,8.78
2022-09-23T21:32:10.252Z,8.78
2022-09-23T21:34:38.561Z,8.75
2022-09-23T21:37:06.389Z,8.73
2022-09-23T21:39:34.117Z,8.71
2022-09-23T21:42:01.904Z,8.70
2022-09-23T21:44:29.569Z,8.69
2022-09-23T21:46:57.574Z,8.69
2022-09-23T21:49:25.336Z,8.70
2022-09-23T21:51:55.101Z,8.69
2022-09-23T21:54:22.999Z,8.68
2022-09-23T21:56:50.751Z,8.67
2022-09-23T21:59:18.489Z,8.65
2022-09-23T22:01:49.311Z,8.63
2022-09-23T22:04:23.568Z,8.60
2022-09-23T22:06:51.447Z,8.57
2022-09-23T22:09:21.382Z,8.55
2022-09-23T22:12:05.074Z,8.54
2022-09-23T22:14:33.516Z,8.55
2022-09-23T22:17:03.832Z,8.55
2022-09-23T22:19:44.198Z,8.55
2022-09-23T22:22:16.584Z,8.53
2022-09-23T22:24:47.104Z,8.51
2022-09-23T22:27:18.241Z,8.47
2022-09-23T22:30:02.213Z,8.42
2022-09-23T22:32:46.074Z,8.38
2022-09-23T22:35:37.747Z,8.35
2022-09-23T22:38:05.587Z,8.33
2022-09-23T22:40:35.941Z,8.32
2022-09-23T22:43:03.856Z,8.31
2022-09-23T22:46:01.459Z,8.30
2022-09-23T22:48:32.481Z,8.29
2022-09-23T22:51:14.300Z,8.26
2022-09-23T22:53:43.737Z,8.26
2022-09-23T22:56:11.959Z,8.26
2022-09-23T22:58:46.271Z,8.25
2022-09-23T23:01:14.227Z,8.25
2022-09-23T23:03:44.584Z,8.24
2022-09-23T23:06:12.565Z,8.24
2022-09-23T23:08:40.589Z,8.23
2022-09-23T23:11:10.185Z,8.22
2022-09-23T23:13:43.060Z,8.19
2022-09-23T23:16:13.093Z,8.15
2022-09-23T23:18:45.538Z,8.11
2022-09-23T23:21:21.584Z,8.09
2022-09-23T23:23:53.797Z,8.07
2022-09-23T23:26:27.071Z,8.07
2022-09-23T23:28:57.039Z,8.06
2022-09-23T23:31:27.733Z,8.05
2022-09-23T23:33:55.776Z,8.03
2022-09-23T23:36:26.674Z,8.01
2022-09-23T23:38:54.788Z,7.98
2022-09-23T23:41:23.279Z,7.95
2022-09-23T23:43:59.269Z,7.94
2022-09-23T23:46:30.725Z,7.91
2022-09-23T23:48:59.752Z,7.91
2022-09-23T23:51:27.928Z,7.91
2022-09-23T23:53:59.142Z,7.90
2022-09-23T23:56:27.623Z,7.87
2022-09-23T23:59:03.061Z,7.85
